Canefield Airport

Cloudy with adjacent showers
28oC (82oF)

Cloudy with adjacent showers


Winds: Westerly @ 01kt / 02km/h

Humidity: 81%

Barometric Pressure: 1014 mb

Accumulated Rainfall for September: 79.2 mm

Updated: 8:00 local time (12:00 UTC)

Douglas-Charles Airport

Cloudy
28oC (82oF)

Cloudy


Winds: South south easterly @ 03kts / 06km/h

Humidity: 81%

Barometric Pressure: 1016 mb

Accumulated Rainfall for September: 179.6 mm

Updated: 8:00 local time (12:00 UTC)

Satellite Imagery

Satellite Imagery
Click image for larger view. (Source: National Hurricane Center).

Aviation Routine Report (METAR)

Douglas-Charles: METAR TDPD 251200Z 16003KT 9999 SCT016 SCT034 28/25 Q1016=
Canefield: METAR TDCF 251200Z 27001KT 9999 FEW012CB SCT036 28/25 Q1014=